Argyle, Michigan
Current Conditions -  °F | °C
As of 12:39 AM on Saturday 01 Nov 2014 (Local Time) from KBAX Reporting Station
Light Snow Light Snow  
Wind Chill: 21°   Ceiling: 1300
Heat Index: 32°   Visibility: 7mi
Dew Point: 32°   Wind: 17mph
Humidity: 99%   Direction: 20°NNE
Pressure: 30.2"   Gusts: 26mph
Location:  43.56°N, 82.94°W
Report Text: KBAX 010439Z AUTO 02015G23KT 7SM -SN SCT009 BKN013 OVC020 00/00 A3020 RMK AO2 T00020000
Loading
Personal Weather Stations






























Interactive Weather Map
Tropical Storm Tracking
New forecast layout! Learn more

10-Day Weather Forecast

Advertisements
Track Severe Weather on mobile